TKY91L LPPT-LPMA
Flight info
| Callsign | TKY91L |
|---|---|
| Flight time | N/A |
| Altitude | 35000 |
| Route | ULVOT DCT GALPA DCT RAKUN |
| Aircraft | B738/M-SDE2E3FGHIRWXY/LB1 |
Departure
| Time | 2026-05-05 16:03 |
|---|---|
| Airport | Lisbon Humberto Delgado Airport (LPPT) |
Arrival
| Time | N/A |
|---|---|
| Airport | Cristiano Ronaldo International Airport (LPMA) |
| Time | Latitude | Longitude | Altitude | Speed | Heading |
|---|---|---|---|---|---|
| 2026-05-05 15:42 | 38.77311 | -9.13255 | 337 ft | 0 kts | 168° |
| 2026-05-05 15:49 | 38.77299 | -9.13252 | 334 ft | 4 kts | 168° |
| 2026-05-05 15:50 | 38.77260 | -9.13242 | 337 ft | 8 kts | 169° |
| 2026-05-05 15:50 | 38.77199 | -9.13225 | 332 ft | 10 kts | 167° |
| 2026-05-05 15:50 | 38.77127 | -9.13205 | 336 ft | 10 kts | 168° |
| 2026-05-05 15:50 | 38.77057 | -9.13186 | 335 ft | 10 kts | 168° |
| 2026-05-05 15:51 | 38.76989 | -9.13168 | 337 ft | 10 kts | 168° |
| 2026-05-05 15:51 | 38.76922 | -9.13151 | 335 ft | 10 kts | 167° |
| 2026-05-05 15:51 | 38.76859 | -9.13132 | 337 ft | 9 kts | 170° |
| 2026-05-05 15:51 | 38.76826 | -9.13124 | 336 ft | 4 kts | 168° |
| 2026-05-05 15:52 | 38.76799 | -9.13122 | 336 ft | 4 kts | 200° |
| 2026-05-05 15:52 | 38.76783 | -9.13152 | 339 ft | 4 kts | 246° |
| 2026-05-05 15:52 | 38.76777 | -9.13187 | 339 ft | 4 kts | 258° |
| 2026-05-05 15:52 | 38.76771 | -9.13222 | 337 ft | 4 kts | 257° |
| 2026-05-05 15:53 | 38.76765 | -9.13256 | 340 ft | 4 kts | 259° |
| 2026-05-05 15:53 | 38.76760 | -9.13290 | 336 ft | 4 kts | 259° |
| 2026-05-05 15:53 | 38.76755 | -9.13323 | 339 ft | 4 kts | 259° |
| 2026-05-05 15:53 | 38.76749 | -9.13357 | 342 ft | 4 kts | 251° |
| 2026-05-05 15:54 | 38.76729 | -9.13396 | 346 ft | 6 kts | 225° |
| 2026-05-05 15:54 | 38.76696 | -9.13426 | 349 ft | 6 kts | 212° |
| 2026-05-05 15:54 | 38.76658 | -9.13465 | 350 ft | 7 kts | 240° |
| 2026-05-05 15:54 | 38.76647 | -9.13528 | 347 ft | 7 kts | 258° |
| 2026-05-05 15:55 | 38.76637 | -9.13590 | 346 ft | 7 kts | 258° |
| 2026-05-05 15:55 | 38.76628 | -9.13650 | 353 ft | 7 kts | 259° |
| 2026-05-05 15:55 | 38.76619 | -9.13709 | 347 ft | 7 kts | 257° |
| 2026-05-05 15:55 | 38.76609 | -9.13767 | 348 ft | 7 kts | 257° |
| 2026-05-05 15:56 | 38.76600 | -9.13823 | 352 ft | 6 kts | 258° |
| 2026-05-05 15:56 | 38.76590 | -9.13879 | 345 ft | 6 kts | 257° |
| 2026-05-05 15:56 | 38.76581 | -9.13933 | 347 ft | 6 kts | 258° |
| 2026-05-05 15:56 | 38.76571 | -9.13986 | 352 ft | 6 kts | 249° |
| 2026-05-05 15:57 | 38.76547 | -9.14030 | 352 ft | 6 kts | 229° |
| 2026-05-05 15:57 | 38.76520 | -9.14068 | 346 ft | 6 kts | 227° |
| 2026-05-05 15:57 | 38.76500 | -9.14114 | 351 ft | 6 kts | 254° |
| 2026-05-05 15:57 | 38.76495 | -9.14159 | 344 ft | 6 kts | 278° |
| 2026-05-05 15:58 | 38.76509 | -9.14216 | 338 ft | 4 kts | 293° |
| 2026-05-05 15:58 | 38.76515 | -9.14235 | 337 ft | 0 kts | 292° |
| 2026-05-05 16:01 | 38.76516 | -9.14237 | 339 ft | 1 kts | 292° |
| 2026-05-05 16:01 | 38.76527 | -9.14272 | 338 ft | 7 kts | 292° |
| 2026-05-05 16:01 | 38.76549 | -9.14343 | 332 ft | 9 kts | 292° |
| 2026-05-05 16:01 | 38.76589 | -9.14404 | 333 ft | 10 kts | 339° |
| 2026-05-05 16:02 | 38.76658 | -9.14381 | 335 ft | 16 kts | 23° |
| 2026-05-05 16:02 | 38.76976 | -9.14212 | 346 ft | 83 kts | 22° |
| 2026-05-05 16:02 | 38.77707 | -9.13820 | 362 ft | 143 kts | 24° |
| 2026-05-05 16:02 | 38.78758 | -9.13251 | 540 ft | 179 kts | 19° |
| 2026-05-05 16:03 | 38.79909 | -9.12529 | 1302 ft | 181 kts | 20° |
| 2026-05-05 16:03 | 38.80629 | -9.12059 | 2104 ft | 171 kts | 22° |
| 2026-05-05 16:03 | 38.81717 | -9.11349 | 2636 ft | 189 kts | 21° |
| 2026-05-05 16:03 | 38.82965 | -9.10526 | 2866 ft | 215 kts | 22° |
| 2026-05-05 16:04 | 38.84314 | -9.09565 | 3339 ft | 225 kts | 25° |
| 2026-05-05 16:04 | 38.85714 | -9.08506 | 3725 ft | 248 kts | 26° |
| 2026-05-05 16:04 | 38.87221 | -9.07295 | 4366 ft | 256 kts | 25° |
| 2026-05-05 16:04 | 38.88898 | -9.06730 | 5225 ft | 252 kts | 353° |
| 2026-05-05 16:05 | 38.90497 | -9.07563 | 6006 ft | 255 kts | 319° |
| 2026-05-05 16:05 | 38.91532 | -9.09435 | 6783 ft | 259 kts | 297° |
| 2026-05-05 16:05 | 38.92020 | -9.11665 | 7628 ft | 267 kts | 276° |
| 2026-05-05 16:05 | 38.91761 | -9.14065 | 8367 ft | 278 kts | 252° |
| 2026-05-05 16:06 | 38.90783 | -9.16254 | 9164 ft | 288 kts | 235° |
| 2026-05-05 16:06 | 38.89462 | -9.18210 | 9950 ft | 294 kts | 232° |
| 2026-05-05 16:06 | 38.88024 | -9.20141 | 10514 ft | 306 kts | 229° |
| 2026-05-05 16:06 | 38.86482 | -9.22182 | 10727 ft | 330 kts | 229° |
| 2026-05-05 16:07 | 38.84827 | -9.24372 | 10927 ft | 352 kts | 229° |
| 2026-05-05 16:07 | 38.83100 | -9.26670 | 11428 ft | 361 kts | 230° |
| 2026-05-05 16:07 | 38.81354 | -9.29008 | 12170 ft | 363 kts | 230° |
| 2026-05-05 16:07 | 38.79609 | -9.31358 | 12978 ft | 364 kts | 230° |
| 2026-05-05 16:08 | 38.77859 | -9.33727 | 13713 ft | 367 kts | 230° |
| 2026-05-05 16:08 | 38.76100 | -9.36116 | 14369 ft | 370 kts | 230° |
| 2026-05-05 16:08 | 38.74329 | -9.38526 | 15003 ft | 372 kts | 230° |
| 2026-05-05 16:08 | 38.72574 | -9.40918 | 15654 ft | 374 kts | 230° |
| 2026-05-05 16:09 | 38.70785 | -9.43354 | 16325 ft | 376 kts | 230° |
| 2026-05-05 16:09 | 38.68989 | -9.45801 | 16967 ft | 378 kts | 230° |
| 2026-05-05 16:09 | 38.67183 | -9.48260 | 17563 ft | 382 kts | 229° |
| 2026-05-05 16:09 | 38.65355 | -9.50747 | 18180 ft | 385 kts | 229° |
| 2026-05-05 16:10 | 38.63517 | -9.53247 | 18772 ft | 387 kts | 229° |
| 2026-05-05 16:10 | 38.61670 | -9.55757 | 19318 ft | 389 kts | 229° |
| 2026-05-05 16:10 | 38.59809 | -9.58283 | 19830 ft | 392 kts | 229° |
| 2026-05-05 16:10 | 38.57935 | -9.60825 | 20351 ft | 394 kts | 229° |
| 2026-05-05 16:11 | 38.56046 | -9.63385 | 20866 ft | 397 kts | 229° |
| 2026-05-05 16:11 | 38.50264 | -9.71122 | 22346 ft | 405 kts | 229° |
| 2026-05-05 16:12 | 38.48312 | -9.73731 | 22829 ft | 407 kts | 229° |
| 2026-05-05 16:12 | 38.44379 | -9.79006 | 23767 ft | 412 kts | 229° |
| 2026-05-05 16:13 | 38.38477 | -9.86944 | 25064 ft | 413 kts | 229° |
| 2026-05-05 16:13 | 38.36494 | -9.89609 | 25483 ft | 414 kts | 230° |
| 2026-05-05 16:13 | 38.34512 | -9.92271 | 25892 ft | 415 kts | 230° |
| 2026-05-05 16:14 | 38.30530 | -9.97614 | 26674 ft | 416 kts | 230° |
| 2026-05-05 16:14 | 38.26531 | -10.02970 | 27431 ft | 418 kts | 230° |
| 2026-05-05 16:15 | 38.22512 | -10.08343 | 28148 ft | 420 kts | 230° |
| 2026-05-05 16:15 | 38.18492 | -10.13710 | 28784 ft | 422 kts | 230° |
| 2026-05-05 16:16 | 38.14430 | -10.19120 | 29608 ft | 420 kts | 230° |
| 2026-05-05 16:16 | 38.10441 | -10.24420 | 30661 ft | 411 kts | 230° |
| 2026-05-05 16:17 | 38.06492 | -10.29664 | 31224 ft | 412 kts | 230° |
| 2026-05-05 16:17 | 38.04507 | -10.32298 | 31532 ft | 411 kts | 230° |
| 2026-05-05 16:18 | 38.00596 | -10.37478 | 32259 ft | 407 kts | 230° |
| 2026-05-05 16:18 | 37.98636 | -10.40072 | 32557 ft | 407 kts | 230° |
| 2026-05-05 16:18 | 37.94721 | -10.45244 | 33175 ft | 406 kts | 230° |
| 2026-05-05 16:19 | 37.92769 | -10.47821 | 33504 ft | 404 kts | 230° |
| 2026-05-05 16:19 | 37.90826 | -10.50383 | 33805 ft | 404 kts | 230° |
| 2026-05-05 16:19 | 37.86934 | -10.55508 | 34323 ft | 403 kts | 230° |
| 2026-05-05 16:20 | 37.83028 | -10.60647 | 34618 ft | 406 kts | 229° |
| 2026-05-05 16:20 | 37.79107 | -10.65793 | 35078 ft | 405 kts | 229° |
| 2026-05-05 16:22 | 37.69297 | -10.78634 | 35108 ft | 404 kts | 229° |
| 2026-05-05 16:23 | 37.61520 | -10.88775 | 35137 ft | 401 kts | 229° |
| 2026-05-05 16:23 | 37.55687 | -10.96363 | 35133 ft | 402 kts | 229° |
| 2026-05-05 16:24 | 37.51779 | -11.01436 | 35142 ft | 404 kts | 229° |
| 2026-05-05 16:25 | 37.45866 | -11.09096 | 35143 ft | 408 kts | 229° |
| 2026-05-05 16:25 | 37.39897 | -11.16808 | 35133 ft | 411 kts | 229° |
| 2026-05-05 16:26 | 37.31896 | -11.27118 | 35142 ft | 414 kts | 229° |
| 2026-05-05 16:27 | 37.27861 | -11.32304 | 35142 ft | 415 kts | 229° |
| 2026-05-05 16:27 | 37.23826 | -11.37481 | 35142 ft | 414 kts | 229° |
| 2026-05-05 16:28 | 37.19799 | -11.42640 | 35143 ft | 413 kts | 229° |
| 2026-05-05 16:28 | 37.15780 | -11.47780 | 35144 ft | 412 kts | 229° |
| 2026-05-05 16:29 | 37.11791 | -11.52874 | 35135 ft | 411 kts | 228° |
| 2026-05-05 16:29 | 37.07792 | -11.57973 | 35134 ft | 410 kts | 228° |
| 2026-05-05 16:30 | 37.03795 | -11.63061 | 35150 ft | 410 kts | 228° |
| 2026-05-05 16:30 | 36.99795 | -11.68145 | 35145 ft | 410 kts | 228° |
| 2026-05-05 16:31 | 36.95789 | -11.73230 | 35145 ft | 410 kts | 228° |
| 2026-05-05 16:31 | 36.91806 | -11.78275 | 35147 ft | 410 kts | 228° |
| 2026-05-05 16:32 | 36.87788 | -11.83357 | 35130 ft | 411 kts | 228° |
| 2026-05-05 16:32 | 36.83761 | -11.88444 | 35150 ft | 412 kts | 228° |
| 2026-05-05 16:33 | 36.79721 | -11.93537 | 35156 ft | 413 kts | 228° |
| 2026-05-05 16:33 | 36.75669 | -11.98639 | 35155 ft | 414 kts | 228° |
| 2026-05-05 16:34 | 36.71602 | -12.03750 | 35151 ft | 415 kts | 228° |
| 2026-05-05 16:34 | 36.67532 | -12.08857 | 35156 ft | 415 kts | 228° |
| 2026-05-05 16:35 | 36.63456 | -12.13963 | 35144 ft | 415 kts | 228° |
| 2026-05-05 16:35 | 36.59407 | -12.19027 | 35143 ft | 415 kts | 228° |
| 2026-05-05 16:36 | 36.55333 | -12.24116 | 35151 ft | 414 kts | 228° |
| 2026-05-05 16:36 | 36.51271 | -12.29180 | 35153 ft | 412 kts | 228° |
| 2026-05-05 16:37 | 36.47182 | -12.34273 | 35160 ft | 420 kts | 228° |
| 2026-05-05 16:37 | 36.43010 | -12.39462 | 35160 ft | 427 kts | 228° |
| 2026-05-05 16:38 | 36.38800 | -12.44685 | 35154 ft | 428 kts | 228° |
| 2026-05-05 16:38 | 36.34590 | -12.49899 | 35147 ft | 427 kts | 228° |
| 2026-05-05 16:39 | 36.30382 | -12.55103 | 35152 ft | 427 kts | 228° |
| 2026-05-05 16:39 | 36.26177 | -12.60295 | 35152 ft | 426 kts | 228° |
| 2026-05-05 16:40 | 36.21972 | -12.65480 | 35156 ft | 426 kts | 228° |
| 2026-05-05 16:40 | 36.17795 | -12.70622 | 35154 ft | 426 kts | 228° |
| 2026-05-05 16:41 | 36.13596 | -12.75782 | 35153 ft | 425 kts | 228° |
| 2026-05-05 16:41 | 36.09397 | -12.80935 | 35153 ft | 425 kts | 227° |
| 2026-05-05 16:42 | 36.05199 | -12.86078 | 35137 ft | 424 kts | 227° |
| 2026-05-05 16:42 | 36.01003 | -12.91210 | 35148 ft | 423 kts | 227° |
| 2026-05-05 16:43 | 35.96817 | -12.96321 | 35158 ft | 423 kts | 227° |
| 2026-05-05 16:43 | 35.92635 | -13.01421 | 35152 ft | 423 kts | 227° |
| 2026-05-05 16:44 | 35.88449 | -13.06517 | 35155 ft | 422 kts | 227° |
| 2026-05-05 16:44 | 35.84263 | -13.11605 | 35156 ft | 422 kts | 227° |
| 2026-05-05 16:45 | 35.80077 | -13.16685 | 35155 ft | 422 kts | 227° |
| 2026-05-05 16:45 | 35.75944 | -13.21691 | 35135 ft | 416 kts | 227° |
| 2026-05-05 16:46 | 35.71833 | -13.26664 | 35153 ft | 415 kts | 227° |
| 2026-05-05 16:46 | 35.67715 | -13.31640 | 35157 ft | 414 kts | 227° |
| 2026-05-05 16:47 | 35.63595 | -13.36611 | 35159 ft | 415 kts | 227° |
| 2026-05-05 16:47 | 35.59471 | -13.41578 | 35155 ft | 415 kts | 227° |
| 2026-05-05 16:48 | 35.55337 | -13.46548 | 35155 ft | 416 kts | 226° |
| 2026-05-05 16:48 | 35.51195 | -13.51522 | 35163 ft | 417 kts | 226° |
| 2026-05-05 16:49 | 35.47746 | -13.55656 | 35159 ft | 418 kts | 227° |
| 2026-05-05 16:49 | 35.43592 | -13.60630 | 35154 ft | 416 kts | 227° |
| 2026-05-05 16:50 | 35.39470 | -13.65556 | 35152 ft | 412 kts | 227° |
| 2026-05-05 16:50 | 35.35334 | -13.70495 | 35165 ft | 419 kts | 227° |
| 2026-05-05 16:51 | 35.31117 | -13.75525 | 35167 ft | 427 kts | 226° |
| 2026-05-05 16:51 | 35.26923 | -13.80510 | 35143 ft | 407 kts | 226° |
| 2026-05-05 16:52 | 35.22924 | -13.85256 | 35158 ft | 400 kts | 227° |
| 2026-05-05 16:52 | 35.18909 | -13.90027 | 35169 ft | 410 kts | 227° |
| 2026-05-05 16:53 | 35.14770 | -13.94935 | 35167 ft | 418 kts | 227° |
| 2026-05-05 16:53 | 35.10585 | -13.99886 | 35156 ft | 419 kts | 226° |
| 2026-05-05 16:54 | 35.06385 | -14.04845 | 35157 ft | 420 kts | 226° |
| 2026-05-05 16:54 | 35.02179 | -14.09804 | 35153 ft | 420 kts | 226° |
| 2026-05-05 16:55 | 34.97983 | -14.14745 | 35151 ft | 419 kts | 226° |
| 2026-05-05 16:55 | 34.93794 | -14.19670 | 35151 ft | 417 kts | 226° |
| 2026-05-05 16:56 | 34.89618 | -14.24574 | 35137 ft | 416 kts | 226° |
| 2026-05-05 16:56 | 34.85454 | -14.29455 | 35149 ft | 415 kts | 226° |
| 2026-05-05 16:57 | 34.81297 | -14.34322 | 35153 ft | 414 kts | 226° |
| 2026-05-05 16:57 | 34.76916 | -14.39443 | 35150 ft | 415 kts | 226° |
| 2026-05-05 16:58 | 34.72751 | -14.44304 | 35150 ft | 415 kts | 226° |
| 2026-05-05 16:58 | 34.68606 | -14.49136 | 35151 ft | 416 kts | 226° |
| 2026-05-05 16:59 | 34.64424 | -14.54002 | 35150 ft | 416 kts | 226° |
| 2026-05-05 16:59 | 34.60209 | -14.58900 | 35137 ft | 417 kts | 226° |
| 2026-05-05 17:00 | 34.56000 | -14.63785 | 35154 ft | 425 kts | 226° |
| 2026-05-05 17:00 | 34.51706 | -14.68762 | 35159 ft | 429 kts | 226° |
| 2026-05-05 17:01 | 34.47359 | -14.73789 | 35153 ft | 432 kts | 226° |
| 2026-05-05 17:01 | 34.43022 | -14.78796 | 35130 ft | 427 kts | 226° |
| 2026-05-05 17:02 | 34.38756 | -14.83713 | 35141 ft | 422 kts | 226° |
| 2026-05-05 17:02 | 34.34503 | -14.88613 | 35147 ft | 422 kts | 226° |
| 2026-05-05 17:03 | 34.30242 | -14.93514 | 35140 ft | 423 kts | 226° |
| 2026-05-05 17:03 | 34.25979 | -14.98410 | 35146 ft | 423 kts | 226° |
| 2026-05-05 17:04 | 34.21722 | -15.03291 | 34915 ft | 428 kts | 226° |
| 2026-05-05 17:04 | 34.19561 | -15.05767 | 34603 ft | 428 kts | 226° |
| 2026-05-05 17:04 | 34.17402 | -15.08237 | 34167 ft | 427 kts | 226° |
| 2026-05-05 17:05 | 34.15253 | -15.10694 | 33693 ft | 423 kts | 226° |
| 2026-05-05 17:05 | 34.13112 | -15.13139 | 33245 ft | 424 kts | 226° |
| 2026-05-05 17:05 | 34.10956 | -15.15603 | 32803 ft | 427 kts | 226° |
| 2026-05-05 17:05 | 34.08798 | -15.18066 | 32366 ft | 429 kts | 226° |
| 2026-05-05 17:06 | 34.06653 | -15.20512 | 31929 ft | 430 kts | 225° |
| 2026-05-05 17:06 | 34.04487 | -15.22980 | 31490 ft | 426 kts | 225° |
| 2026-05-05 17:06 | 34.02340 | -15.25423 | 31048 ft | 421 kts | 225° |
| 2026-05-05 17:06 | 34.00236 | -15.27856 | 30626 ft | 416 kts | 230° |
| 2026-05-05 17:07 | 33.98622 | -15.30703 | 30197 ft | 409 kts | 247° |
| 2026-05-05 17:07 | 33.97868 | -15.33974 | 29764 ft | 405 kts | 264° |
| 2026-05-05 17:07 | 33.98030 | -15.37342 | 29439 ft | 404 kts | 280° |
| 2026-05-05 17:07 | 33.98597 | -15.40675 | 29180 ft | 407 kts | 278° |
| 2026-05-05 17:08 | 33.98997 | -15.44064 | 28965 ft | 408 kts | 270° |
| 2026-05-05 17:08 | 33.98647 | -15.47429 | 28755 ft | 405 kts | 252° |
| 2026-05-05 17:08 | 33.97426 | -15.50470 | 28464 ft | 407 kts | 235° |
| 2026-05-05 17:08 | 33.95444 | -15.52916 | 28093 ft | 413 kts | 218° |
| 2026-05-05 17:09 | 33.92988 | -15.54657 | 27689 ft | 416 kts | 210° |
| 2026-05-05 17:09 | 33.90376 | -15.56139 | 27218 ft | 412 kts | 207° |
| 2026-05-05 17:09 | 33.87775 | -15.57523 | 26773 ft | 406 kts | 207° |
| 2026-05-05 17:09 | 33.85199 | -15.58865 | 26332 ft | 402 kts | 207° |
| 2026-05-05 17:10 | 33.82632 | -15.60192 | 25894 ft | 403 kts | 207° |
| 2026-05-05 17:10 | 33.79991 | -15.61556 | 25460 ft | 424 kts | 207° |
| 2026-05-05 17:10 | 33.77230 | -15.62989 | 24978 ft | 436 kts | 207° |
| 2026-05-05 17:10 | 33.74446 | -15.64431 | 24515 ft | 436 kts | 206° |
| 2026-05-05 17:11 | 33.71664 | -15.65871 | 24221 ft | 434 kts | 206° |
| 2026-05-05 17:11 | 33.68886 | -15.67309 | 24172 ft | 434 kts | 206° |
| 2026-05-05 17:11 | 33.66110 | -15.68746 | 24141 ft | 434 kts | 206° |
| 2026-05-05 17:11 | 33.63335 | -15.70181 | 24136 ft | 434 kts | 206° |
| 2026-05-05 17:12 | 33.60562 | -15.71615 | 24145 ft | 434 kts | 206° |
| 2026-05-05 17:12 | 33.57784 | -15.73051 | 24141 ft | 434 kts | 206° |
| 2026-05-05 17:12 | 33.55043 | -15.74467 | 24131 ft | 433 kts | 206° |
| 2026-05-05 17:12 | 33.52281 | -15.75892 | 24123 ft | 432 kts | 206° |
| 2026-05-05 17:13 | 33.49531 | -15.77310 | 24130 ft | 430 kts | 206° |
| 2026-05-05 17:13 | 33.46780 | -15.78726 | 24126 ft | 430 kts | 206° |
| 2026-05-05 17:13 | 33.44032 | -15.80142 | 24116 ft | 430 kts | 207° |
| 2026-05-05 17:13 | 33.41415 | -15.81833 | 24124 ft | 425 kts | 218° |
| 2026-05-05 17:14 | 33.39167 | -15.84108 | 24132 ft | 422 kts | 227° |
| 2026-05-05 17:14 | 33.37253 | -15.86759 | 24134 ft | 421 kts | 233° |
| 2026-05-05 17:14 | 33.35388 | -15.89470 | 24131 ft | 423 kts | 232° |
| 2026-05-05 17:14 | 33.33498 | -15.92169 | 24127 ft | 424 kts | 232° |
| 2026-05-05 17:15 | 33.31585 | -15.94873 | 24135 ft | 425 kts | 232° |
| 2026-05-05 17:15 | 33.29668 | -15.97568 | 24125 ft | 426 kts | 232° |
| 2026-05-05 17:15 | 33.27743 | -16.00265 | 24122 ft | 425 kts | 231° |
| 2026-05-05 17:15 | 33.25880 | -16.02870 | 23988 ft | 406 kts | 231° |
| 2026-05-05 17:16 | 33.24051 | -16.05421 | 23870 ft | 383 kts | 232° |
| 2026-05-05 17:16 | 33.22362 | -16.07777 | 23762 ft | 363 kts | 232° |
| 2026-05-05 17:16 | 33.20764 | -16.10012 | 23658 ft | 347 kts | 232° |
| 2026-05-05 17:16 | 33.19220 | -16.12183 | 23237 ft | 340 kts | 232° |
| 2026-05-05 17:17 | 33.17688 | -16.14322 | 22557 ft | 339 kts | 232° |
| 2026-05-05 17:17 | 33.16158 | -16.16455 | 21863 ft | 338 kts | 232° |
| 2026-05-05 17:17 | 33.14637 | -16.18578 | 21234 ft | 335 kts | 232° |
| 2026-05-05 17:17 | 33.13125 | -16.20687 | 20601 ft | 333 kts | 232° |
| 2026-05-05 17:18 | 33.11625 | -16.22777 | 20004 ft | 330 kts | 232° |
| 2026-05-05 17:18 | 33.10636 | -16.24155 | 19627 ft | 329 kts | 232° |
| 2026-05-05 17:18 | 33.08677 | -16.26884 | 18873 ft | 325 kts | 232° |
| 2026-05-05 17:18 | 33.07685 | -16.28263 | 18496 ft | 324 kts | 232° |
| 2026-05-05 17:19 | 33.05758 | -16.30943 | 17822 ft | 316 kts | 232° |
| 2026-05-05 17:19 | 33.04344 | -16.32907 | 17336 ft | 310 kts | 232° |
| 2026-05-05 17:19 | 33.02943 | -16.34854 | 16766 ft | 309 kts | 232° |
| 2026-05-05 17:19 | 33.01542 | -16.36798 | 16230 ft | 307 kts | 232° |
| 2026-05-05 17:20 | 33.00619 | -16.38077 | 15891 ft | 306 kts | 232° |
| 2026-05-05 17:20 | 32.99238 | -16.39991 | 15399 ft | 303 kts | 231° |
| 2026-05-05 17:20 | 32.97869 | -16.41887 | 15078 ft | 294 kts | 231° |
| 2026-05-05 17:20 | 32.96571 | -16.43683 | 15156 ft | 283 kts | 232° |
| 2026-05-05 17:21 | 32.95259 | -16.45505 | 15228 ft | 297 kts | 232° |
| 2026-05-05 17:21 | 32.93886 | -16.47412 | 15248 ft | 306 kts | 232° |
| 2026-05-05 17:21 | 32.92489 | -16.49348 | 15340 ft | 309 kts | 232° |
| 2026-05-05 17:22 | 32.89671 | -16.53234 | 16540 ft | 310 kts | 231° |
| 2026-05-05 17:22 | 32.88285 | -16.55154 | 17151 ft | 310 kts | 232° |
| 2026-05-05 17:22 | 32.86870 | -16.57113 | 17659 ft | 312 kts | 232° |
| 2026-05-05 17:22 | 32.85452 | -16.59072 | 18172 ft | 314 kts | 232° |
| 2026-05-05 17:23 | 32.84237 | -16.61229 | 18581 ft | 315 kts | 246° |
| 2026-05-05 17:23 | 32.83583 | -16.63701 | 19016 ft | 314 kts | 262° |
| 2026-05-05 17:23 | 32.83593 | -16.66291 | 19431 ft | 316 kts | 280° |
| 2026-05-05 17:23 | 32.84347 | -16.68756 | 19813 ft | 321 kts | 299° |
| 2026-05-05 17:24 | 32.85805 | -16.70795 | 20088 ft | 329 kts | 318° |
| 2026-05-05 17:24 | 32.87820 | -16.72127 | 20102 ft | 337 kts | 339° |
| 2026-05-05 17:24 | 32.90155 | -16.72506 | 20101 ft | 345 kts | 0° |
| 2026-05-05 17:24 | 32.92488 | -16.71858 | 20114 ft | 352 kts | 20° |
| 2026-05-05 17:25 | 32.94556 | -16.70269 | 20121 ft | 358 kts | 38° |
| 2026-05-05 17:25 | 32.95820 | -16.68935 | 20124 ft | 360 kts | 39° |
| 2026-05-05 17:25 | 32.98256 | -16.66222 | 20122 ft | 363 kts | 40° |
| 2026-05-05 17:25 | 33.00098 | -16.64149 | 20114 ft | 365 kts | 40° |
| 2026-05-05 17:26 | 33.01947 | -16.62085 | 20101 ft | 364 kts | 40° |
| 2026-05-05 17:26 | 33.03804 | -16.60029 | 20109 ft | 363 kts | 40° |
| 2026-05-05 17:26 | 33.05658 | -16.57989 | 20117 ft | 362 kts | 40° |
| 2026-05-05 17:26 | 33.07508 | -16.55959 | 20122 ft | 361 kts | 39° |
| 2026-05-05 17:27 | 33.09358 | -16.53932 | 20131 ft | 361 kts | 40° |
| 2026-05-05 17:27 | 33.11211 | -16.51900 | 20130 ft | 361 kts | 39° |
| 2026-05-05 17:27 | 33.13046 | -16.49858 | 20120 ft | 362 kts | 44° |
| 2026-05-05 17:27 | 33.14398 | -16.47339 | 20133 ft | 372 kts | 70° |
| 2026-05-05 17:28 | 33.14798 | -16.44291 | 20139 ft | 374 kts | 94° |
| 2026-05-05 17:28 | 33.14167 | -16.41327 | 20143 ft | 368 kts | 119° |
| 2026-05-05 17:28 | 33.12668 | -16.38928 | 20123 ft | 358 kts | 142° |
| 2026-05-05 17:28 | 33.10578 | -16.37415 | 20120 ft | 349 kts | 165° |
| 2026-05-05 17:29 | 33.08237 | -16.36929 | 20124 ft | 338 kts | 186° |
| 2026-05-05 17:29 | 33.05992 | -16.37429 | 20124 ft | 320 kts | 204° |
| 2026-05-05 17:29 | 33.04079 | -16.38647 | 20099 ft | 304 kts | 221° |
| 2026-05-05 17:29 | 33.02506 | -16.40255 | 20102 ft | 293 kts | 226° |
| 2026-05-05 17:30 | 33.01044 | -16.41877 | 20085 ft | 282 kts | 226° |
| 2026-05-05 17:31 | 32.95254 | -16.48341 | 20116 ft | 284 kts | 226° |
| 2026-05-05 17:31 | 32.93807 | -16.49934 | 20109 ft | 283 kts | 226° |
| 2026-05-05 17:31 | 32.92361 | -16.51521 | 20123 ft | 282 kts | 226° |
| 2026-05-05 17:31 | 32.90915 | -16.53108 | 20113 ft | 284 kts | 226° |
| 2026-05-05 17:32 | 32.89459 | -16.54703 | 20097 ft | 284 kts | 226° |
| 2026-05-05 17:32 | 32.88002 | -16.56296 | 20102 ft | 283 kts | 226° |
| 2026-05-05 17:32 | 32.86560 | -16.57872 | 20089 ft | 280 kts | 226° |
| 2026-05-05 17:32 | 32.85153 | -16.59432 | 20094 ft | 273 kts | 231° |
| 2026-05-05 17:33 | 32.84196 | -16.61335 | 20112 ft | 269 kts | 253° |
| 2026-05-05 17:33 | 32.83872 | -16.63525 | 20102 ft | 272 kts | 270° |
| 2026-05-05 17:33 | 32.84160 | -16.65744 | 20113 ft | 275 kts | 288° |
| 2026-05-05 17:33 | 32.85078 | -16.67759 | 20108 ft | 281 kts | 307° |
| 2026-05-05 17:34 | 32.86552 | -16.69259 | 20100 ft | 288 kts | 328° |
| 2026-05-05 17:34 | 32.88473 | -16.70018 | 20090 ft | 296 kts | 350° |
| 2026-05-05 17:34 | 32.90538 | -16.69827 | 20114 ft | 303 kts | 12° |
| 2026-05-05 17:34 | 32.92449 | -16.68729 | 20100 ft | 311 kts | 35° |
| 2026-05-05 17:35 | 32.94092 | -16.67050 | 20119 ft | 312 kts | 39° |
| 2026-05-05 17:35 | 32.95688 | -16.65290 | 20114 ft | 313 kts | 40° |
| 2026-05-05 17:35 | 32.97278 | -16.63514 | 20116 ft | 314 kts | 40° |
| 2026-05-05 17:35 | 32.98874 | -16.61738 | 20119 ft | 315 kts | 39° |
| 2026-05-05 17:36 | 33.00479 | -16.59962 | 20105 ft | 315 kts | 39° |
| 2026-05-05 17:36 | 33.02086 | -16.58191 | 20104 ft | 314 kts | 39° |
| 2026-05-05 17:36 | 33.03692 | -16.56428 | 20104 ft | 314 kts | 39° |
| 2026-05-05 17:36 | 33.05298 | -16.54665 | 20118 ft | 313 kts | 39° |
| 2026-05-05 17:37 | 33.06879 | -16.52932 | 20124 ft | 312 kts | 39° |
| 2026-05-05 17:37 | 33.07959 | -16.51748 | 20122 ft | 312 kts | 39° |
| 2026-05-05 17:37 | 33.10073 | -16.49430 | 20127 ft | 311 kts | 39° |
| 2026-05-05 17:37 | 33.11633 | -16.47639 | 20124 ft | 313 kts | 49° |
| 2026-05-05 17:38 | 33.12619 | -16.45323 | 20148 ft | 317 kts | 76° |
| 2026-05-05 17:38 | 33.12723 | -16.42700 | 20131 ft | 320 kts | 102° |
| 2026-05-05 17:38 | 33.11947 | -16.40242 | 20143 ft | 317 kts | 127° |
| 2026-05-05 17:38 | 33.10432 | -16.38385 | 20128 ft | 310 kts | 152° |
| 2026-05-05 17:39 | 33.08475 | -16.37439 | 20130 ft | 300 kts | 176° |
| 2026-05-05 17:39 | 33.06440 | -16.37479 | 20128 ft | 289 kts | 198° |
| 2026-05-05 17:39 | 33.04592 | -16.38292 | 20102 ft | 281 kts | 216° |
| 2026-05-05 17:39 | 33.03066 | -16.39700 | 20118 ft | 275 kts | 225° |
| 2026-05-05 17:40 | 33.01651 | -16.41244 | 20116 ft | 276 kts | 226° |
| 2026-05-05 17:40 | 33.00252 | -16.42806 | 20098 ft | 276 kts | 226° |
| 2026-05-05 17:40 | 32.98855 | -16.44365 | 20106 ft | 275 kts | 226° |
| 2026-05-05 17:40 | 32.97457 | -16.45916 | 20099 ft | 274 kts | 226° |
| 2026-05-05 17:41 | 32.96061 | -16.47458 | 20098 ft | 274 kts | 226° |
| 2026-05-05 17:41 | 32.94682 | -16.48976 | 20103 ft | 273 kts | 226° |
| 2026-05-05 17:41 | 32.93284 | -16.50512 | 20111 ft | 274 kts | 226° |
| 2026-05-05 17:41 | 32.91879 | -16.52054 | 20121 ft | 276 kts | 226° |
| 2026-05-05 17:42 | 32.90456 | -16.53613 | 20114 ft | 280 kts | 226° |
| 2026-05-05 17:42 | 32.89017 | -16.55189 | 20099 ft | 282 kts | 226° |
| 2026-05-05 17:42 | 32.87565 | -16.56775 | 20102 ft | 283 kts | 226° |
| 2026-05-05 17:42 | 32.86113 | -16.58361 | 20103 ft | 284 kts | 226° |
| 2026-05-05 17:43 | 32.84735 | -16.60026 | 20091 ft | 281 kts | 239° |
| 2026-05-05 17:43 | 32.83962 | -16.62130 | 20111 ft | 277 kts | 259° |
| 2026-05-05 17:43 | 32.83833 | -16.64404 | 20102 ft | 277 kts | 276° |
| 2026-05-05 17:43 | 32.84322 | -16.66609 | 20105 ft | 278 kts | 293° |
| 2026-05-05 17:44 | 32.85398 | -16.68494 | 20095 ft | 283 kts | 312° |
| 2026-05-05 17:44 | 32.87022 | -16.69847 | 20100 ft | 289 kts | 333° |
| 2026-05-05 17:44 | 32.88990 | -16.70405 | 20093 ft | 296 kts | 355° |
| 2026-05-05 17:44 | 32.91043 | -16.70051 | 20107 ft | 303 kts | 15° |
| 2026-05-05 17:45 | 32.92917 | -16.68854 | 20103 ft | 311 kts | 35° |
| 2026-05-05 17:45 | 32.94560 | -16.67159 | 20116 ft | 314 kts | 39° |
| 2026-05-05 17:45 | 32.96164 | -16.65379 | 20118 ft | 317 kts | 40° |
| 2026-05-05 17:45 | 32.97777 | -16.63569 | 20116 ft | 320 kts | 40° |
| 2026-05-05 17:46 | 32.99404 | -16.61752 | 20111 ft | 322 kts | 40° |
| 2026-05-05 17:46 | 33.01046 | -16.59932 | 20103 ft | 322 kts | 39° |
| 2026-05-05 17:46 | 33.02672 | -16.58139 | 20105 ft | 322 kts | 39° |
| 2026-05-05 17:46 | 33.04320 | -16.56328 | 20101 ft | 321 kts | 39° |
| 2026-05-05 17:47 | 33.05960 | -16.54528 | 20123 ft | 320 kts | 39° |
| 2026-05-05 17:47 | 33.07602 | -16.52728 | 20124 ft | 319 kts | 39° |
| 2026-05-05 17:47 | 33.09235 | -16.50938 | 20118 ft | 318 kts | 39° |
| 2026-05-05 17:47 | 33.10863 | -16.49152 | 20131 ft | 317 kts | 39° |
| 2026-05-05 17:48 | 33.12347 | -16.47194 | 20106 ft | 321 kts | 59° |
| 2026-05-05 17:48 | 33.13052 | -16.44687 | 20145 ft | 322 kts | 84° |
| 2026-05-05 17:48 | 33.12871 | -16.42033 | 20142 ft | 323 kts | 109° |
| 2026-05-05 17:48 | 33.11849 | -16.39678 | 20122 ft | 321 kts | 134° |
| 2026-05-05 17:49 | 33.10159 | -16.38017 | 20134 ft | 312 kts | 158° |
| 2026-05-05 17:49 | 33.08124 | -16.37305 | 20127 ft | 302 kts | 181° |
| 2026-05-05 17:49 | 33.06079 | -16.37556 | 20130 ft | 292 kts | 201° |
| 2026-05-05 17:49 | 33.04262 | -16.38534 | 20097 ft | 284 kts | 220° |
| 2026-05-05 17:50 | 33.02758 | -16.40022 | 20108 ft | 280 kts | 225° |
| 2026-05-05 17:50 | 33.01327 | -16.41598 | 20113 ft | 280 kts | 226° |
| 2026-05-05 17:50 | 32.99908 | -16.43184 | 20096 ft | 280 kts | 226° |
| 2026-05-05 17:50 | 32.98970 | -16.44232 | 20099 ft | 279 kts | 226° |
| 2026-05-05 17:51 | 32.97086 | -16.46324 | 20100 ft | 279 kts | 226° |
| 2026-05-05 17:51 | 32.95661 | -16.47898 | 20102 ft | 279 kts | 226° |
| 2026-05-05 17:51 | 32.94235 | -16.49467 | 20104 ft | 279 kts | 226° |
| 2026-05-05 17:51 | 32.92804 | -16.51039 | 20115 ft | 280 kts | 226° |
| 2026-05-05 17:52 | 32.91367 | -16.52615 | 20116 ft | 283 kts | 226° |
| 2026-05-05 17:52 | 32.90385 | -16.53691 | 20114 ft | 285 kts | 226° |
| 2026-05-05 17:52 | 32.88939 | -16.55274 | 20095 ft | 286 kts | 226° |
| 2026-05-05 17:52 | 32.87473 | -16.56876 | 20094 ft | 286 kts | 226° |
| 2026-05-05 17:53 | 32.86012 | -16.58471 | 20092 ft | 285 kts | 226° |
| 2026-05-05 17:53 | 32.84652 | -16.60159 | 20087 ft | 281 kts | 240° |
| 2026-05-05 17:53 | 32.83931 | -16.62274 | 20108 ft | 275 kts | 260° |
| 2026-05-05 17:53 | 32.83842 | -16.64528 | 20101 ft | 274 kts | 277° |
| 2026-05-05 17:54 | 32.84359 | -16.66701 | 20104 ft | 275 kts | 294° |
| 2026-05-05 17:54 | 32.85461 | -16.68567 | 20093 ft | 279 kts | 313° |
| 2026-05-05 17:54 | 32.87069 | -16.69874 | 20100 ft | 285 kts | 333° |
| 2026-05-05 17:54 | 32.89016 | -16.70414 | 20096 ft | 293 kts | 355° |
| 2026-05-05 17:55 | 32.91054 | -16.70067 | 20113 ft | 301 kts | 15° |
| 2026-05-05 17:55 | 32.92933 | -16.68887 | 20109 ft | 314 kts | 34° |
| 2026-05-05 17:55 | 32.94611 | -16.67171 | 20121 ft | 321 kts | 39° |
| 2026-05-05 17:55 | 32.96240 | -16.65361 | 20103 ft | 319 kts | 40° |
| 2026-05-05 17:56 | 32.97842 | -16.63554 | 20089 ft | 317 kts | 40° |
| 2026-05-05 17:56 | 32.99446 | -16.61757 | 20092 ft | 314 kts | 40° |
| 2026-05-05 17:56 | 33.01018 | -16.60010 | 20095 ft | 312 kts | 39° |
| 2026-05-05 17:56 | 33.02626 | -16.58236 | 20103 ft | 312 kts | 39° |